createdAt,value
2018-06-27T00:02:05.392Z,96139.00
2018-06-27T00:04:36.491Z,96132.00
2018-06-27T00:07:07.820Z,96136.00
2018-06-27T00:09:38.912Z,96137.00
2018-06-27T00:12:10.029Z,96130.00
2018-06-27T00:14:41.294Z,96128.00
2018-06-27T00:17:12.370Z,96127.00
2018-06-27T00:19:43.699Z,96124.00
2018-06-27T00:22:14.731Z,96130.00
2018-06-27T00:24:46.669Z,96130.00
2018-06-27T00:27:17.883Z,96129.00
2018-06-27T00:29:49.114Z,96125.00
2018-06-27T00:32:21.220Z,96124.00
2018-06-27T00:34:52.256Z,96131.00
2018-06-27T00:37:24.840Z,96122.00
2018-06-27T00:39:55.915Z,96120.00
2018-06-27T00:42:27.161Z,96123.00
2018-06-27T00:44:58.232Z,96119.00
2018-06-27T00:47:29.550Z,96120.00
2018-06-27T00:50:00.853Z,96121.00
2018-06-27T00:52:32.191Z,96120.00
2018-06-27T00:55:03.295Z,96123.00
2018-06-27T00:57:34.681Z,96124.00
2018-06-27T01:00:05.885Z,96126.00
2018-06-27T01:02:37.188Z,96128.00
2018-06-27T01:05:08.396Z,96125.00
2018-06-27T01:07:39.627Z,96130.00
2018-06-27T01:10:10.879Z,96123.00
2018-06-27T01:12:42.028Z,96122.00
2018-06-27T01:15:13.225Z,96127.00
2018-06-27T01:17:49.627Z,96115.00
2018-06-27T01:20:20.917Z,96113.00
2018-06-27T01:22:52.138Z,96109.00
2018-06-27T01:25:23.458Z,96101.00
2018-06-27T01:27:55.217Z,96101.00
2018-06-27T01:30:26.379Z,96101.00
2018-06-27T01:32:57.603Z,96097.00
2018-06-27T01:35:28.881Z,96087.00
2018-06-27T01:38:00.258Z,96087.00
2018-06-27T01:40:31.276Z,96086.00
2018-06-27T01:43:02.646Z,96085.00
2018-06-27T01:45:34.309Z,96082.00
2018-06-27T01:48:05.412Z,96085.00
2018-06-27T01:50:36.541Z,96093.00
2018-06-27T01:53:09.725Z,96088.00
2018-06-27T01:55:40.998Z,96094.00
2018-06-27T01:58:12.405Z,96094.00
2018-06-27T02:00:43.583Z,96096.00
2018-06-27T02:03:14.642Z,96103.00
2018-06-27T02:05:46.010Z,96101.00
2018-06-27T02:08:16.972Z,96106.00
2018-06-27T02:10:47.963Z,96106.00
2018-06-27T02:13:19.568Z,96104.00
2018-06-27T02:15:50.784Z,96105.00
2018-06-27T02:18:21.829Z,96101.00
2018-06-27T02:20:52.992Z,96104.00
2018-06-27T02:23:24.140Z,96103.00
2018-06-27T02:25:55.537Z,96097.00
2018-06-27T02:28:26.633Z,96099.00
2018-06-27T02:30:57.809Z,96097.00
2018-06-27T02:33:29.370Z,96094.00
2018-06-27T02:36:00.808Z,96097.00
2018-06-27T02:38:32.165Z,96092.00
2018-06-27T02:41:03.301Z,96096.00
2018-06-27T02:43:34.465Z,96104.00
2018-06-27T02:46:05.420Z,96102.00
2018-06-27T02:48:36.450Z,96103.00
2018-06-27T02:51:07.380Z,96102.00
2018-06-27T02:53:38.917Z,96104.00
2018-06-27T02:56:11.762Z,96106.00
2018-06-27T02:58:42.649Z,96111.00
2018-06-27T03:01:13.636Z,96109.00
2018-06-27T03:03:44.723Z,96105.00
2018-06-27T03:06:15.733Z,96104.00
2018-06-27T03:08:46.778Z,96104.00
2018-06-27T03:11:17.693Z,96104.00
2018-06-27T03:13:48.695Z,96111.00
2018-06-27T03:16:19.732Z,96112.00
2018-06-27T03:18:55.318Z,96112.00
2018-06-27T03:21:26.780Z,96119.00
2018-06-27T03:23:57.734Z,96117.00
2018-06-27T03:26:28.985Z,96120.00
2018-06-27T03:29:00.050Z,96124.00
2018-06-27T03:31:31.237Z,96129.00
2018-06-27T03:34:02.174Z,96132.00
2018-06-27T03:36:33.133Z,96131.00
2018-06-27T03:39:04.594Z,96123.00
2018-06-27T03:41:35.737Z,96116.00
2018-06-27T03:44:07.118Z,96119.00
2018-06-27T03:46:38.094Z,96119.00
2018-06-27T03:49:08.963Z,96122.00
2018-06-27T03:51:39.867Z,96127.00
2018-06-27T03:54:10.878Z,96128.00
2018-06-27T03:56:41.925Z,96125.00
2018-06-27T03:59:12.985Z,96127.00
2018-06-27T04:01:44.016Z,96123.00
2018-06-27T04:04:14.862Z,96123.00
2018-06-27T04:06:46.037Z,96124.00
2018-06-27T04:09:17.353Z,96121.00
2018-06-27T04:11:48.338Z,96119.00
2018-06-27T04:14:19.611Z,96118.00
2018-06-27T04:16:50.586Z,96116.00
2018-06-27T04:19:22.037Z,96115.00
2018-06-27T04:21:52.966Z,96119.00
2018-06-27T04:24:23.981Z,96123.00
2018-06-27T04:26:55.085Z,96125.00
2018-06-27T04:29:26.218Z,96125.00
2018-06-27T04:31:57.054Z,96132.00
2018-06-27T04:34:28.607Z,96131.00
2018-06-27T04:36:59.575Z,96128.00
2018-06-27T04:39:30.621Z,96130.00
2018-06-27T04:42:01.665Z,96134.00
2018-06-27T04:44:32.701Z,96130.00
2018-06-27T04:47:03.652Z,96132.00
2018-06-27T04:49:34.793Z,96135.00
2018-06-27T04:52:05.790Z,96133.00
2018-06-27T04:54:36.957Z,96131.00
2018-06-27T04:57:07.902Z,96122.00
2018-06-27T04:59:40.671Z,96122.00
2018-06-27T05:02:12.269Z,96124.00
2018-06-27T05:04:43.210Z,96123.00
2018-06-27T05:07:14.325Z,96131.00
2018-06-27T05:09:45.660Z,96128.00
2018-06-27T05:12:16.762Z,96125.00
2018-06-27T05:14:48.014Z,96118.00
2018-06-27T05:17:19.134Z,96124.00
2018-06-27T05:19:50.279Z,96125.00
2018-06-27T05:22:21.463Z,96125.00
2018-06-27T05:24:52.430Z,96124.00
2018-06-27T05:27:23.358Z,96125.00
2018-06-27T05:29:55.354Z,96127.00
2018-06-27T05:32:26.416Z,96130.00
2018-06-27T05:34:57.361Z,96130.00
2018-06-27T05:37:28.240Z,96130.00
2018-06-27T05:39:59.248Z,96138.00
2018-06-27T05:42:30.252Z,96132.00
2018-06-27T05:45:01.201Z,96135.00
2018-06-27T05:47:32.206Z,96143.00
2018-06-27T05:50:03.105Z,96147.00
2018-06-27T05:52:35.663Z,96143.00
2018-06-27T05:55:08.870Z,96140.00
2018-06-27T05:57:41.679Z,96145.00
2018-06-27T06:00:14.980Z,96148.00
2018-06-27T06:02:46.318Z,96151.00
2018-06-27T06:05:17.362Z,96152.00
2018-06-27T06:07:51.065Z,96152.00
2018-06-27T06:10:22.397Z,96152.00
2018-06-27T06:12:53.630Z,96162.00
2018-06-27T06:15:24.802Z,96166.00
2018-06-27T06:17:55.904Z,96165.00
2018-06-27T06:20:26.822Z,96171.00
2018-06-27T06:22:57.861Z,96166.00
2018-06-27T06:25:28.727Z,96171.00
2018-06-27T06:27:59.886Z,96165.00
2018-06-27T06:30:30.917Z,96163.00
2018-06-27T06:33:01.971Z,96162.00
2018-06-27T06:35:32.994Z,96160.00
2018-06-27T06:38:04.341Z,96172.00
2018-06-27T06:40:35.337Z,96169.00
2018-06-27T06:43:06.310Z,96167.00
2018-06-27T06:45:37.187Z,96168.00
2018-06-27T06:48:08.320Z,96155.00
2018-06-27T06:50:39.234Z,96162.00
2018-06-27T06:53:10.515Z,96164.00
2018-06-27T06:55:45.118Z,96166.00
2018-06-27T06:58:19.205Z,96170.00
2018-06-27T07:00:50.207Z,96175.00
2018-06-27T07:03:21.266Z,96174.00
2018-06-27T07:05:53.757Z,96177.00
2018-06-27T07:08:26.268Z,96177.00
2018-06-27T07:10:57.261Z,96178.00
2018-06-27T07:13:28.425Z,96183.00
2018-06-27T07:15:59.385Z,96181.00
2018-06-27T07:18:30.685Z,96186.00
2018-06-27T07:21:01.989Z,96184.00
2018-06-27T07:23:33.001Z,96186.00
2018-06-27T07:26:04.130Z,96187.00
2018-06-27T07:28:35.236Z,96186.00
2018-06-27T07:31:06.460Z,96187.00
2018-06-27T07:33:37.500Z,96189.00
2018-06-27T07:36:09.427Z,96187.00
2018-06-27T07:38:40.465Z,96185.00
2018-06-27T07:41:11.629Z,96177.00
2018-06-27T07:43:42.541Z,96176.00
2018-06-27T07:46:13.529Z,96178.00
2018-06-27T07:48:44.732Z,96186.00
2018-06-27T07:51:15.670Z,96185.00
2018-06-27T07:53:46.746Z,96188.00
2018-06-27T07:56:17.752Z,96192.00
2018-06-27T07:58:48.832Z,96185.00
2018-06-27T08:01:19.902Z,96189.00
2018-06-27T08:03:53.768Z,96189.00
2018-06-27T08:06:24.913Z,96189.00
2018-06-27T08:08:56.401Z,96189.00
2018-06-27T08:11:34.455Z,96195.00
2018-06-27T08:14:05.857Z,96187.00
2018-06-27T08:16:37.135Z,96176.00
2018-06-27T08:19:08.142Z,96184.00
2018-06-27T08:21:39.245Z,96185.00
2018-06-27T08:24:10.588Z,96193.00
2018-06-27T08:26:41.688Z,96182.00
2018-06-27T08:29:12.655Z,96183.00
2018-06-27T08:31:43.859Z,96180.00
2018-06-27T08:34:14.767Z,96176.00
2018-06-27T08:36:46.434Z,96176.00
2018-06-27T08:39:17.455Z,96179.00
2018-06-27T08:41:48.503Z,96174.00
2018-06-27T08:44:19.467Z,96177.00
2018-06-27T08:46:50.556Z,96171.00
2018-06-27T08:49:21.581Z,96173.00
2018-06-27T08:51:52.654Z,96168.00
2018-06-27T08:54:23.911Z,96165.00
2018-06-27T08:56:54.973Z,96167.00
2018-06-27T08:59:25.995Z,96169.00
2018-06-27T09:01:56.979Z,96163.00
2018-06-27T09:04:28.998Z,96167.00
2018-06-27T09:07:00.090Z,96171.00
2018-06-27T09:09:31.175Z,96170.00
2018-06-27T09:12:02.387Z,96176.00
2018-06-27T09:14:46.094Z,96166.00
2018-06-27T09:17:20.249Z,96162.00
2018-06-27T09:19:54.234Z,96170.00
2018-06-27T09:22:25.357Z,96169.00
2018-06-27T09:25:11.244Z,96168.00
2018-06-27T09:27:52.659Z,96177.00
2018-06-27T09:30:27.846Z,96169.00
2018-06-27T09:32:59.118Z,96177.00
2018-06-27T09:35:42.475Z,96180.00
2018-06-27T09:38:16.286Z,96189.00
2018-06-27T09:40:47.435Z,96187.00
2018-06-27T09:43:24.879Z,96185.00
2018-06-27T09:45:59.810Z,96193.00
2018-06-27T09:48:31.805Z,96192.00
2018-06-27T09:51:14.517Z,96194.00
2018-06-27T09:53:51.084Z,96184.00
2018-06-27T09:56:22.574Z,96185.00
2018-06-27T09:59:03.528Z,96186.00
2018-06-27T10:01:41.825Z,96190.00
2018-06-27T10:04:14.726Z,96189.00
2018-06-27T10:06:46.964Z,96191.00
2018-06-27T10:09:33.471Z,96190.00
2018-06-27T10:12:09.759Z,96185.00
2018-06-27T10:14:59.613Z,96183.00
2018-06-27T10:17:33.139Z,96180.00
2018-06-27T10:20:19.459Z,96174.00
2018-06-27T10:22:58.213Z,96176.00
2018-06-27T10:25:29.853Z,96169.00
2018-06-27T10:28:00.877Z,96170.00
2018-06-27T10:30:31.854Z,96168.00
2018-06-27T10:33:02.841Z,96173.00
2018-06-27T10:35:33.844Z,96171.00
2018-06-27T10:38:05.005Z,96176.00
2018-06-27T10:40:36.123Z,96178.00
2018-06-27T10:43:07.132Z,96182.00
2018-06-27T10:45:38.652Z,96165.00
2018-06-27T10:48:09.722Z,96163.00
2018-06-27T10:50:40.685Z,96167.00
2018-06-27T10:53:11.623Z,96162.00
2018-06-27T10:55:43.073Z,96168.00
2018-06-27T10:58:13.958Z,96178.00
2018-06-27T11:00:54.744Z,96174.00
2018-06-27T11:03:48.311Z,96163.00
2018-06-27T11:06:23.054Z,96159.00
2018-06-27T11:08:54.069Z,96154.00
2018-06-27T11:11:25.133Z,96161.00
2018-06-27T11:13:56.157Z,96158.00
2018-06-27T11:16:27.241Z,96163.00
2018-06-27T11:18:58.283Z,96165.00
2018-06-27T11:21:30.315Z,96168.00
2018-06-27T11:24:07.204Z,96162.00
2018-06-27T11:26:38.682Z,96169.00
2018-06-27T11:29:09.713Z,96169.00
2018-06-27T11:31:40.674Z,96166.00
2018-06-27T11:34:11.665Z,96161.00
2018-06-27T11:36:42.765Z,96160.00
2018-06-27T11:39:19.795Z,96154.00
2018-06-27T11:41:53.015Z,96148.00
2018-06-27T11:44:25.300Z,96144.00
2018-06-27T11:46:56.393Z,96151.00
2018-06-27T11:49:27.538Z,96152.00
2018-06-27T11:51:58.815Z,96157.00
2018-06-27T11:54:29.834Z,96158.00
2018-06-27T11:57:01.112Z,96151.00
2018-06-27T11:59:32.279Z,96157.00
2018-06-27T12:02:03.199Z,96146.00
2018-06-27T12:04:34.150Z,96147.00
2018-06-27T12:07:05.138Z,96147.00
2018-06-27T12:09:36.126Z,96142.00
2018-06-27T12:12:07.252Z,96143.00
2018-06-27T12:14:38.451Z,96140.00
2018-06-27T12:17:09.738Z,96144.00
2018-06-27T12:19:40.936Z,96142.00
2018-06-27T12:22:11.971Z,96140.00
2018-06-27T12:24:42.910Z,96135.00
2018-06-27T12:27:14.200Z,96136.00
2018-06-27T12:29:45.082Z,96133.00
2018-06-27T12:32:16.039Z,96134.00
2018-06-27T12:34:47.138Z,96138.00
2018-06-27T12:37:18.157Z,96128.00
2018-06-27T12:39:49.096Z,96126.00
2018-06-27T12:42:20.122Z,96122.00
2018-06-27T12:44:51.033Z,96130.00
2018-06-27T12:47:22.289Z,96133.00
2018-06-27T12:49:53.355Z,96136.00
2018-06-27T12:52:24.586Z,96133.00
2018-06-27T12:55:00.387Z,96126.00
2018-06-27T12:57:32.651Z,96134.00
2018-06-27T13:00:04.348Z,96130.00
2018-06-27T13:02:35.338Z,96132.00
2018-06-27T13:05:07.439Z,96134.00
2018-06-27T13:07:38.298Z,96129.00
2018-06-27T13:10:10.243Z,96124.00
2018-06-27T13:12:41.155Z,96125.00
2018-06-27T13:15:12.090Z,96125.00
2018-06-27T13:17:43.026Z,96131.00
2018-06-27T13:20:14.310Z,96127.00
2018-06-27T13:22:45.349Z,96133.00
2018-06-27T13:25:16.402Z,96134.00
2018-06-27T13:27:47.421Z,96126.00
2018-06-27T13:30:18.738Z,96130.00
2018-06-27T13:32:50.263Z,96130.00
2018-06-27T13:35:21.167Z,96125.00
2018-06-27T13:37:52.341Z,96121.00
2018-06-27T13:40:23.389Z,96123.00
2018-06-27T13:42:54.601Z,96124.00
2018-06-27T13:45:26.056Z,96123.00
2018-06-27T13:48:00.101Z,96119.00
2018-06-27T13:50:37.352Z,96120.00
2018-06-27T13:53:18.296Z,96123.00
2018-06-27T13:55:53.317Z,96124.00
2018-06-27T13:58:24.255Z,96111.00
2018-06-27T14:00:55.164Z,96109.00
2018-06-27T14:03:26.147Z,96114.00
2018-06-27T14:05:57.222Z,96105.00
2018-06-27T14:08:28.303Z,96102.00
2018-06-27T14:10:59.278Z,96107.00
2018-06-27T14:13:30.575Z,96106.00
2018-06-27T14:16:01.653Z,96104.00
2018-06-27T14:18:32.750Z,96104.00
2018-06-27T14:21:05.840Z,96106.00
2018-06-27T14:23:36.826Z,96095.00
2018-06-27T14:26:07.817Z,96100.00
2018-06-27T14:28:38.722Z,96091.00
2018-06-27T14:31:10.010Z,96092.00
2018-06-27T14:33:41.056Z,96084.00
2018-06-27T14:36:12.184Z,96074.00
2018-06-27T14:38:43.365Z,96077.00
2018-06-27T14:41:15.531Z,96080.00
2018-06-27T14:43:50.530Z,96077.00
2018-06-27T14:46:22.682Z,96072.00
2018-06-27T14:48:53.671Z,96074.00
2018-06-27T14:51:24.830Z,96077.00
2018-06-27T14:53:55.819Z,96074.00
2018-06-27T14:56:27.161Z,96077.00
2018-06-27T14:58:58.364Z,96064.00
2018-06-27T15:01:29.462Z,96065.00
2018-06-27T15:04:00.444Z,96075.00
2018-06-27T15:06:31.433Z,96070.00
2018-06-27T15:09:02.547Z,96067.00
2018-06-27T15:11:40.641Z,96066.00
2018-06-27T15:14:13.618Z,96056.00
2018-06-27T15:16:44.675Z,96063.00
2018-06-27T15:19:16.371Z,96062.00
2018-06-27T15:21:47.573Z,96064.00
2018-06-27T15:24:18.575Z,96057.00
2018-06-27T15:26:49.642Z,96056.00
2018-06-27T15:29:20.598Z,96056.00
2018-06-27T15:31:52.617Z,96052.00
2018-06-27T15:34:23.703Z,96048.00
2018-06-27T15:36:54.950Z,96057.00
2018-06-27T15:39:26.056Z,96057.00
2018-06-27T15:41:57.065Z,96062.00
2018-06-27T15:44:30.174Z,96060.00
2018-06-27T15:47:03.097Z,96063.00
2018-06-27T15:49:34.176Z,96062.00
2018-06-27T15:52:05.113Z,96060.00
2018-06-27T15:54:36.156Z,96058.00
2018-06-27T15:57:07.438Z,96060.00
2018-06-27T15:59:39.963Z,96058.00
2018-06-27T16:02:16.906Z,96062.00
2018-06-27T16:04:48.033Z,96059.00
2018-06-27T16:07:19.436Z,96054.00
2018-06-27T16:09:51.379Z,96059.00
2018-06-27T16:12:22.520Z,96056.00
2018-06-27T16:14:53.693Z,96055.00
2018-06-27T16:17:25.287Z,96059.00
2018-06-27T16:19:57.133Z,96060.00
2018-06-27T16:22:28.322Z,96056.00
2018-06-27T16:24:59.225Z,96055.00
2018-06-27T16:27:30.393Z,96053.00
2018-06-27T16:30:01.511Z,96058.00
2018-06-27T16:32:32.617Z,96056.00
2018-06-27T16:35:04.479Z,96054.00
2018-06-27T16:37:35.526Z,96045.00
2018-06-27T16:40:06.670Z,96048.00
2018-06-27T16:42:37.757Z,96051.00
2018-06-27T16:45:09.105Z,96056.00
2018-06-27T16:47:40.164Z,96057.00
2018-06-27T16:50:11.167Z,96056.00
2018-06-27T16:52:42.178Z,96061.00
2018-06-27T16:55:13.161Z,96061.00
2018-06-27T16:57:45.218Z,96063.00
2018-06-27T17:00:16.288Z,96067.00
2018-06-27T17:02:47.509Z,96067.00
2018-06-27T17:05:23.026Z,96070.00
2018-06-27T17:07:56.380Z,96064.00
2018-06-27T17:10:27.634Z,96060.00
2018-06-27T17:12:58.734Z,96067.00
2018-06-27T17:15:29.669Z,96068.00
2018-06-27T17:18:01.119Z,96061.00
2018-06-27T17:20:32.420Z,96063.00
2018-06-27T17:23:03.432Z,96058.00
2018-06-27T17:25:34.584Z,96057.00
2018-06-27T17:28:06.380Z,96059.00
2018-06-27T17:30:37.585Z,96063.00
2018-06-27T17:33:08.651Z,96068.00
2018-06-27T17:35:40.061Z,96064.00
2018-06-27T17:38:11.007Z,96067.00
2018-06-27T17:40:42.029Z,96077.00
2018-06-27T17:43:15.062Z,96078.00
2018-06-27T17:45:46.294Z,96089.00
2018-06-27T17:48:17.292Z,96085.00
2018-06-27T17:50:48.296Z,96091.00
2018-06-27T17:53:20.046Z,96095.00
2018-06-27T17:55:51.031Z,96094.00
2018-06-27T17:58:22.241Z,96094.00
2018-06-27T18:00:53.272Z,96091.00
2018-06-27T18:03:25.589Z,96085.00
2018-06-27T18:05:56.681Z,96087.00
2018-06-27T18:08:27.709Z,96084.00
2018-06-27T18:10:58.737Z,96084.00
2018-06-27T18:13:30.847Z,96087.00
2018-06-27T18:16:03.111Z,96094.00
2018-06-27T18:18:34.446Z,96097.00
2018-06-27T18:21:05.430Z,96091.00
2018-06-27T18:23:37.332Z,96093.00
2018-06-27T18:26:10.481Z,96086.00
2018-06-27T18:28:42.148Z,96087.00
2018-06-27T18:31:14.008Z,96088.00
2018-06-27T18:33:45.994Z,96083.00
2018-06-27T18:36:17.747Z,96088.00
2018-06-27T18:38:49.474Z,96094.00
2018-06-27T18:41:21.321Z,96093.00
2018-06-27T18:43:52.671Z,96095.00
2018-06-27T18:46:23.840Z,96094.00
2018-06-27T18:48:54.777Z,96101.00
2018-06-27T18:51:26.389Z,96104.00
2018-06-27T18:53:57.509Z,96099.00
2018-06-27T18:56:28.753Z,96111.00
2018-06-27T18:58:59.733Z,96112.00
2018-06-27T19:01:33.666Z,96105.00
2018-06-27T19:04:05.234Z,96113.00
2018-06-27T19:06:36.647Z,96117.00
2018-06-27T19:09:10.427Z,96119.00
2018-06-27T19:11:42.712Z,96120.00
2018-06-27T19:14:14.953Z,96123.00
2018-06-27T19:16:46.805Z,96122.00
2018-06-27T19:19:18.725Z,96127.00
2018-06-27T19:21:50.205Z,96127.00
2018-06-27T19:24:21.913Z,96132.00
2018-06-27T19:26:54.129Z,96133.00
2018-06-27T19:29:25.108Z,96128.00
2018-06-27T19:31:56.188Z,96125.00
2018-06-27T19:34:27.500Z,96130.00
2018-06-27T19:36:58.515Z,96131.00
2018-06-27T19:39:37.455Z,96129.00
2018-06-27T19:42:00.662Z,96133.00
2018-06-27T19:44:31.766Z,96136.00
2018-06-27T19:47:02.753Z,96133.00
2018-06-27T19:49:34.035Z,96135.00
2018-06-27T19:52:05.098Z,96139.00
2018-06-27T19:54:36.509Z,96137.00
2018-06-27T19:57:07.627Z,96139.00
2018-06-27T19:59:38.676Z,96139.00
2018-06-27T20:02:09.637Z,96140.00
2018-06-27T20:04:40.802Z,96148.00
2018-06-27T20:07:11.819Z,96151.00
2018-06-27T20:09:43.096Z,96151.00
2018-06-27T20:12:14.020Z,96151.00
2018-06-27T20:14:45.298Z,96151.00
2018-06-27T20:17:16.308Z,96153.00
2018-06-27T20:19:47.363Z,96152.00
2018-06-27T20:22:18.514Z,96156.00
2018-06-27T20:24:49.428Z,96157.00
2018-06-27T20:27:20.496Z,96156.00
2018-06-27T20:29:52.626Z,96154.00
2018-06-27T20:32:23.539Z,96154.00
2018-06-27T20:34:54.688Z,96156.00
2018-06-27T20:37:25.786Z,96153.00
2018-06-27T20:39:57.117Z,96152.00
2018-06-27T20:42:28.247Z,96161.00
2018-06-27T20:44:59.382Z,96162.00
2018-06-27T20:47:30.500Z,96163.00
2018-06-27T20:50:01.603Z,96163.00
2018-06-27T20:52:32.689Z,96163.00
2018-06-27T20:55:03.729Z,96163.00
2018-06-27T20:57:34.827Z,96164.00
2018-06-27T21:00:06.179Z,96165.00
2018-06-27T21:02:37.298Z,96165.00
2018-06-27T21:05:08.275Z,96167.00
2018-06-27T21:07:39.302Z,96167.00
2018-06-27T21:10:10.470Z,96175.00
2018-06-27T21:12:41.618Z,96176.00
2018-06-27T21:15:12.602Z,96181.00
